Terminal Aerodrome Forecast
Issued by NWS Jackson, MS

Home | Current Version | Previous Version | Text Only | Print | Product List | Glossary On
Versions: 1 2 3 4 5 6 7 8 9 10 11 12 13 14 15 16 17
000
FTUS44 KJAN 262320
TAFJAN
TAF
KJAN 262320Z 2700/2724 17011KT P6SM SCT040 BKN060 BKN250
     FM270500 16008KT P6SM OVC100
     FM270700 16008KT P6SM OVC015
     FM271400 16010KT P6SM OVC040
     FM271700 17010G17KT P6SM OVC050=

USA.gov is the U.S. government's official web portal to all federal, state and local government web resources and services.